Time;durP1;ratioP1;P1;durP2;ratioP2;P2;SDS_P1;SDS_P2;PMS_P1;PMS_P2;Temp;Humidity;BMP_temperature;BMP_pressure;BME280_temperature;BME280_humidity;BME280_pressure;Samples;Min_cycle;Max_cycle;Signal;HPM_P1;HPM_P2
2024/04/02 00:00:46;;;;;;;;;;;20.50;49.70;;;;;;1589432;73;1496;-69
2024/04/02 00:02:48;;;;;;;;;;;20.50;49.70;;;;;;1593650;73;678;-69
2024/04/02 00:04:50;;;;;;;;;;;20.60;49.70;;;;;;1582244;73;1549;-70
2024/04/02 00:06:53;;;;;;;;;;;20.60;49.70;;;;;;1587176;73;1138;-71
2024/04/02 00:08:55;;;;;;;;;;;20.60;49.70;;;;;;1592408;73;705;-69
2024/04/02 00:11:03;;;;;;;;;;;20.60;49.70;;;;;;1583874;73;734;-69
2024/04/02 00:13:05;;;;;;;;;;;20.50;49.80;;;;;;1589154;73;717;-69
2024/04/02 00:15:07;;;;;;;;;;;20.50;49.80;;;;;;1577387;73;913;-70
2024/04/02 00:17:09;;;;;;;;;;;20.50;49.80;;;;;;1580095;73;1962;-69
2024/04/02 00:19:12;;;;;;;;;;;20.50;49.80;;;;;;1593948;73;1339;-70
2024/04/02 00:21:14;;;;;;;;;;;20.60;49.80;;;;;;1587863;73;708;-68
2024/04/02 00:23:16;;;;;;;;;;;20.50;49.90;;;;;;1588795;73;720;-69
2024/04/02 00:25:18;;;;;;;;;;;20.50;49.90;;;;;;1593912;73;640;-69
2024/04/02 00:27:20;;;;;;;;;;;20.60;49.90;;;;;;1602002;73;1282;-69
2024/04/02 00:29:22;;;;;;;;;;;20.50;49.90;;;;;;1588141;73;681;-69
2024/04/02 00:31:24;;;;;;;;;;;20.50;49.90;;;;;;1584174;73;734;-69
2024/04/02 00:33:26;;;;;;;;;;;20.50;50.00;;;;;;1588294;73;1494;-70
2024/04/02 00:35:28;;;;;;;;;;;20.50;49.90;;;;;;1586394;73;722;-70
2024/04/02 00:37:30;;;;;;;;;;;20.50;49.90;;;;;;1582376;73;1943;-70
2024/04/02 00:39:32;;;;;;;;;;;20.50;49.90;;;;;;1590067;73;719;-69
2024/04/02 00:41:35;;;;;;;;;;;20.50;49.90;;;;;;1585063;73;636;-71
2024/04/02 00:43:37;;;;;;;;;;;20.50;50.00;;;;;;1579807;73;686;-70
2024/04/02 00:45:40;;;;;;;;;;;20.60;50.00;;;;;;1579875;73;719;-69
2024/04/02 00:47:42;;;;;;;;;;;20.60;50.00;;;;;;1579631;73;1574;-70
2024/04/02 00:49:44;;;;;;;;;;;20.80;50.10;;;;;;1584343;73;716;-69
2024/04/02 00:51:45;;;;;;;;;;;20.50;50.00;;;;;;1587404;73;717;-71
2024/04/02 00:53:47;;;;;;;;;;;20.50;50.00;;;;;;1589786;73;734;-69
2024/04/02 00:55:49;;;;;;;;;;;20.50;50.00;;;;;;1589144;73;722;-70
2024/04/02 00:57:51;;;;;;;;;;;20.60;50.10;;;;;;1584764;73;1943;-70
2024/04/02 00:59:53;;;;;;;;;;;20.50;50.10;;;;;;1584950;73;745;-73
2024/04/02 01:01:55;;;;;;;;;;;20.60;50.00;;;;;;1582837;73;1537;-70
2024/04/02 01:03:57;;;;;;;;;;;20.50;50.00;;;;;;1595160;73;702;-68
2024/04/02 01:05:59;;;;;;;;;;;20.50;50.00;;;;;;1586718;73;1149;-69
2024/04/02 01:08:01;;;;;;;;;;;20.50;50.00;;;;;;1585110;73;698;-70
2024/04/02 01:10:02;;;;;;;;;;;20.50;50.00;;;;;;1576554;73;724;-70
2024/04/02 01:12:07;;;;;;;;;;;20.80;50.10;;;;;;1584716;73;744;-70
2024/04/02 01:14:08;;;;;;;;;;;20.50;50.00;;;;;;1582284;73;1666;-68
2024/04/02 01:16:13;;;;;;;;;;;20.50;50.00;;;;;;1591022;73;1599;-70
2024/04/02 01:18:13;;;;;;;;;;;20.90;50.30;;;;;;1585475;73;1930;-69
2024/04/02 01:20:15;;;;;;;;;;;20.50;50.00;;;;;;1593275;73;768;-70
2024/04/02 01:22:17;;;;;;;;;;;20.50;50.00;;;;;;1583930;73;784;-69
2024/04/02 01:24:19;;;;;;;;;;;20.50;50.00;;;;;;1591591;73;800;-70
2024/04/02 01:26:21;;;;;;;;;;;20.60;50.10;;;;;;1591356;73;1097;-69
2024/04/02 01:28:23;;;;;;;;;;;20.50;50.00;;;;;;1590844;73;972;-68
2024/04/02 01:30:25;;;;;;;;;;;20.50;50.10;;;;;;1588140;73;1366;-70
2024/04/02 01:32:27;;;;;;;;;;;20.50;50.00;;;;;;1579206;73;769;-70
2024/04/02 01:34:29;;;;;;;;;;;20.50;50.00;;;;;;1596536;73;737;-69
2024/04/02 01:36:31;;;;;;;;;;;20.60;50.00;;;;;;1602278;73;1930;-69
2024/04/02 01:38:33;;;;;;;;;;;20.60;50.00;;;;;;1589718;73;790;-70
2024/04/02 01:40:34;;;;;;;;;;;20.50;50.00;;;;;;1589333;73;747;-70
2024/04/02 01:42:36;;;;;;;;;;;20.50;50.00;;;;;;1589795;73;644;-68
2024/04/02 01:44:38;;;;;;;;;;;20.50;50.10;;;;;;1584308;73;1358;-68
2024/04/02 01:46:40;;;;;;;;;;;20.60;50.10;;;;;;1594195;74;1116;-70
2024/04/02 01:48:42;;;;;;;;;;;20.50;50.10;;;;;;1591495;73;646;-71
2024/04/02 01:50:44;;;;;;;;;;;20.90;50.30;;;;;;1579479;73;766;-69
2024/04/02 01:52:46;;;;;;;;;;;20.50;50.00;;;;;;1597487;73;711;-70
2024/04/02 01:54:48;;;;;;;;;;;20.60;50.10;;;;;;1591843;73;749;-70
2024/04/02 01:56:50;;;;;;;;;;;20.60;50.10;;;;;;1589486;73;1946;-69
2024/04/02 01:58:51;;;;;;;;;;;20.50;50.10;;;;;;1588702;73;1552;-70
2024/04/02 02:00:53;;;;;;;;;;;20.50;50.00;;;;;;1588358;73;679;-70
2024/04/02 02:02:55;;;;;;;;;;;20.50;50.00;;;;;;1596747;73;706;-69
2024/04/02 02:04:57;;;;;;;;;;;20.60;50.00;;;;;;1588171;73;782;-68
2024/04/02 02:06:59;;;;;;;;;;;20.60;50.10;;;;;;1595208;73;1124;-72
2024/04/02 02:09:02;;;;;;;;;;;20.60;50.10;;;;;;1600089;73;748;-71
2024/04/02 02:11:04;;;;;;;;;;;20.50;50.10;;;;;;1589846;73;789;-71
2024/04/02 02:13:08;;;;;;;;;;;20.50;50.10;;;;;;1583913;73;1559;-71
2024/04/02 02:15:09;;;;;;;;;;;20.60;50.20;;;;;;1589207;73;775;-69
2024/04/02 02:17:11;;;;;;;;;;;20.60;50.10;;;;;;1595097;73;1931;-69
2024/04/02 02:19:13;;;;;;;;;;;20.60;50.10;;;;;;1592723;73;729;-71
2024/04/02 02:21:15;;;;;;;;;;;20.50;50.10;;;;;;1591756;73;687;-69
2024/04/02 02:23:19;;;;;;;;;;;20.50;50.10;;;;;;1590242;73;719;-69
2024/04/02 02:25:21;;;;;;;;;;;20.60;50.20;;;;;;1598326;73;698;-71
2024/04/02 02:27:22;;;;;;;;;;;20.50;50.10;;;;;;1596001;73;1438;-70
2024/04/02 02:29:25;;;;;;;;;;;20.50;50.10;;;;;;1592340;73;790;-69
2024/04/02 02:31:27;;;;;;;;;;;20.60;50.00;;;;;;1586347;73;652;-69
2024/04/02 02:33:29;;;;;;;;;;;20.60;50.10;;;;;;1591635;73;675;-69
2024/04/02 02:35:31;;;;;;;;;;;20.50;50.20;;;;;;1594730;73;738;-69
2024/04/02 02:37:33;;;;;;;;;;;20.50;50.10;;;;;;1589875;73;1963;-69
2024/04/02 02:39:35;;;;;;;;;;;20.50;50.20;;;;;;1588405;73;1518;-69
2024/04/02 02:41:36;;;;;;;;;;;20.60;50.20;;;;;;1582082;73;672;-67
2024/04/02 02:43:38;;;;;;;;;;;20.50;50.20;;;;;;1587890;73;737;-68
2024/04/02 02:45:50;;;;;;;;;;;20.50;50.20;;;;;;1594597;73;819;-69
2024/04/02 02:47:52;;;;;;;;;;;20.50;50.20;;;;;;1591246;73;1361;-69
2024/04/02 02:49:54;;;;;;;;;;;20.60;50.20;;;;;;1589231;73;717;-68
2024/04/02 02:51:55;;;;;;;;;;;20.60;50.20;;;;;;1587357;73;740;-69
2024/04/02 02:53:57;;;;;;;;;;;20.50;50.30;;;;;;1591615;73;1546;-70
2024/04/02 02:56:00;;;;;;;;;;;20.50;50.30;;;;;;1592176;73;1207;-70
2024/04/02 02:58:01;;;;;;;;;;;20.50;50.20;;;;;;1592703;73;1917;-69
2024/04/02 03:00:05;;;;;;;;;;;20.50;50.20;;;;;;1585243;73;664;-68
2024/04/02 03:02:07;;;;;;;;;;;20.50;50.20;;;;;;1592470;73;692;-70
2024/04/02 03:04:09;;;;;;;;;;;20.50;50.20;;;;;;1601653;73;780;-70
2024/04/02 03:06:11;;;;;;;;;;;20.50;50.30;;;;;;1585471;73;1148;-70
2024/04/02 03:08:13;;;;;;;;;;;20.50;50.20;;;;;;1587357;73;1510;-70
2024/04/02 03:10:15;;;;;;;;;;;20.50;50.30;;;;;;1588785;73;676;-68
2024/04/02 03:12:17;;;;;;;;;;;20.50;50.30;;;;;;1589184;73;784;-70
2024/04/02 03:14:19;;;;;;;;;;;20.50;50.30;;;;;;1590979;73;701;-68
2024/04/02 03:16:21;;;;;;;;;;;20.50;50.30;;;;;;1594913;73;1099;-68
2024/04/02 03:18:23;;;;;;;;;;;20.50;50.40;;;;;;1597381;73;1924;-72
2024/04/02 03:20:25;;;;;;;;;;;20.50;50.30;;;;;;1594930;73;659;-69
2024/04/02 03:22:27;;;;;;;;;;;20.50;50.40;;;;;;1585714;73;1557;-68
2024/04/02 03:24:29;;;;;;;;;;;20.50;50.30;;;;;;1593545;73;629;-69
2024/04/02 03:26:31;;;;;;;;;;;20.50;50.30;;;;;;1598367;73;1150;-72
2024/04/02 03:28:33;;;;;;;;;;;20.80;50.50;;;;;;1589924;73;817;-70
2024/04/02 03:30:35;;;;;;;;;;;20.60;50.30;;;;;;1599002;73;688;-70
2024/04/02 03:32:37;;;;;;;;;;;20.60;50.30;;;;;;1590226;73;783;-70
2024/04/02 03:34:39;;;;;;;;;;;20.50;50.30;;;;;;1600382;73;839;-69
2024/04/02 03:36:41;;;;;;;;;;;20.50;50.30;;;;;;1594310;73;1496;-69
2024/04/02 03:38:43;;;;;;;;;;;20.60;50.30;;;;;;1586297;73;1955;-70
2024/04/02 03:40:45;;;;;;;;;;;20.50;50.30;;;;;;1594861;73;683;-70
2024/04/02 03:42:47;;;;;;;;;;;20.60;50.40;;;;;;1593315;73;752;-68
2024/04/02 03:44:48;;;;;;;;;;;20.50;50.30;;;;;;1586260;73;743;-71
2024/04/02 03:46:50;;;;;;;;;;;20.50;50.40;;;;;;1588329;73;1123;-69
2024/04/02 03:48:52;;;;;;;;;;;20.50;50.30;;;;;;1584870;73;803;-70
2024/04/02 03:50:54;;;;;;;;;;;20.50;50.30;;;;;;1603567;73;1295;-68
2024/04/02 03:52:56;;;;;;;;;;;20.50;50.30;;;;;;1603731;73;752;-69
2024/04/02 03:54:58;;;;;;;;;;;20.50;50.30;;;;;;1589451;73;635;-69
2024/04/02 03:57:00;;;;;;;;;;;20.50;50.20;;;;;;1593304;73;1171;-69
2024/04/02 03:59:02;;;;;;;;;;;20.60;50.30;;;;;;1595081;73;1924;-69
2024/04/02 04:01:11;;;;;;;;;;;20.50;50.30;;;;;;1591057;73;688;-69
2024/04/02 04:03:10;;;;;;;;;;;20.50;50.30;;;;;;1590804;73;1201;-68
2024/04/02 04:05:13;;;;;;;;;;;20.50;50.30;;;;;;1592325;73;1559;-70
2024/04/02 04:07:14;;;;;;;;;;;20.50;50.30;;;;;;1595884;73;1146;-71
2024/04/02 04:09:16;;;;;;;;;;;20.50;50.30;;;;;;1592231;73;731;-68
2024/04/02 04:11:18;;;;;;;;;;;20.50;50.40;;;;;;1591897;73;792;-68
2024/04/02 04:13:21;;;;;;;;;;;20.50;50.50;;;;;;1591797;73;675;-69
2024/04/02 04:15:22;;;;;;;;;;;20.50;50.50;;;;;;1595145;73;816;-68
2024/04/02 04:17:24;;;;;;;;;;;20.60;50.40;;;;;;1593372;73;1951;-68
2024/04/02 04:19:26;;;;;;;;;;;20.60;50.30;;;;;;1588210;73;1581;-72
2024/04/02 04:21:28;;;;;;;;;;;20.60;50.30;;;;;;1582238;73;792;-66
2024/04/02 04:23:30;;;;;;;;;;;20.60;50.20;;;;;;1595474;73;699;-66
2024/04/02 04:25:32;;;;;;;;;;;20.60;50.10;;;;;;1605654;73;768;-68
2024/04/02 04:27:36;;;;;;;;;;;20.60;50.10;;;;;;1597286;73;1142;-66
2024/04/02 04:29:37;;;;;;;;;;;20.60;50.10;;;;;;1590750;73;1708;-66
2024/04/02 04:31:41;;;;;;;;;;;20.60;50.00;;;;;;1588479;73;786;-64
2024/04/02 04:33:42;;;;;;;;;;;20.50;50.00;;;;;;1589618;73;1895;-65
2024/04/02 04:35:44;;;;;;;;;;;20.60;49.90;;;;;;1588244;73;768;-63
2024/04/02 04:37:46;;;;;;;;;;;20.60;49.90;;;;;;1590374;73;1956;-69
2024/04/02 04:39:48;;;;;;;;;;;20.50;49.80;;;;;;1593212;73;696;-71
2024/04/02 04:41:50;;;;;;;;;;;20.60;49.80;;;;;;1584359;73;735;-70
2024/04/02 04:43:52;;;;;;;;;;;20.60;49.90;;;;;;1589899;73;799;-70
2024/04/02 04:45:54;;;;;;;;;;;20.60;50.00;;;;;;1593741;73;722;-69
2024/04/02 04:47:56;;;;;;;;;;;20.50;50.00;;;;;;1597819;73;1564;-68
2024/04/02 04:49:58;;;;;;;;;;;20.60;50.00;;;;;;1590675;73;731;-68
2024/04/02 04:52:00;;;;;;;;;;;20.60;50.00;;;;;;1587377;73;817;-68
2024/04/02 04:54:03;;;;;;;;;;;20.60;50.00;;;;;;1591133;73;735;-69
2024/04/02 04:56:05;;;;;;;;;;;20.60;50.00;;;;;;1594975;73;1130;-69
2024/04/02 04:58:07;;;;;;;;;;;20.60;50.00;;;;;;1592748;73;1923;-69
2024/04/02 05:00:09;;;;;;;;;;;20.50;50.00;;;;;;1595814;73;1571;-69
2024/04/02 05:02:11;;;;;;;;;;;20.60;49.90;;;;;;1593417;73;751;-66
2024/04/02 05:04:13;;;;;;;;;;;20.60;49.90;;;;;;1594804;73;759;-66
2024/04/02 05:06:14;;;;;;;;;;;20.60;49.90;;;;;;1586795;73;1159;-69
2024/04/02 05:08:21;;;;;;;;;;;20.60;49.40;;;;;;1582909;73;734;-69
2024/04/02 05:10:24;;;;;;;;;;;20.60;49.60;;;;;;1593702;73;645;-69
2024/04/02 05:12:26;;;;;;;;;;;20.60;49.70;;;;;;1590433;73;1078;-69
2024/04/02 05:14:28;;;;;;;;;;;20.60;49.70;;;;;;1586551;73;1567;-69
2024/04/02 05:16:30;;;;;;;;;;;20.60;49.70;;;;;;1597033;73;1171;-69
2024/04/02 05:18:33;;;;;;;;;;;20.50;49.70;;;;;;1591154;73;1925;-69
2024/04/02 05:20:35;;;;;;;;;;;20.60;49.70;;;;;;1586580;73;814;-70
2024/04/02 05:22:37;;;;;;;;;;;20.60;49.70;;;;;;1596868;73;807;-70
2024/04/02 05:24:38;;;;;;;;;;;20.60;49.70;;;;;;1591133;73;751;-68
2024/04/02 05:26:40;;;;;;;;;;;20.60;49.70;;;;;;1594838;73;1082;-70
2024/04/02 05:28:42;;;;;;;;;;;20.50;49.70;;;;;;1588238;73;1572;-68
2024/04/02 05:30:44;;;;;;;;;;;20.60;49.70;;;;;;1596933;73;758;-69
2024/04/02 05:32:46;;;;;;;;;;;20.50;49.70;;;;;;1588316;74;729;-68
2024/04/02 05:34:48;;;;;;;;;;;20.60;49.70;;;;;;1597189;73;678;-69
2024/04/02 05:36:50;;;;;;;;;;;20.50;49.60;;;;;;1593711;73;1154;-69
2024/04/02 05:38:52;;;;;;;;;;;20.60;49.60;;;;;;1599893;73;1919;-70
2024/04/02 05:40:54;;;;;;;;;;;20.60;49.60;;;;;;1595177;73;718;-70
2024/04/02 05:42:55;;;;;;;;;;;20.50;49.60;;;;;;1586462;73;1589;-70
2024/04/02 05:44:57;;;;;;;;;;;20.60;49.50;;;;;;1593264;73;705;-70
2024/04/02 05:46:59;;;;;;;;;;;20.60;49.50;;;;;;1595683;73;1151;-69
2024/04/02 05:49:01;;;;;;;;;;;20.50;49.50;;;;;;1588904;73;798;-69
2024/04/02 05:51:03;;;;;;;;;;;20.50;49.50;;;;;;1597254;73;645;-69
2024/04/02 05:53:05;;;;;;;;;;;20.50;49.50;;;;;;1583359;73;652;-69
2024/04/02 05:55:07;;;;;;;;;;;20.50;49.40;;;;;;1591385;73;744;-70
2024/04/02 05:57:10;;;;;;;;;;;20.60;49.40;;;;;;1587695;73;1616;-68
2024/04/02 05:59:12;;;;;;;;;;;20.60;49.40;;;;;;1594557;73;1918;-69
2024/04/02 06:01:14;;;;;;;;;;;20.50;49.40;;;;;;1594006;73;665;-69
2024/04/02 06:03:16;;;;;;;;;;;20.50;49.40;;;;;;1587087;73;676;-69
2024/04/02 06:05:18;;;;;;;;;;;20.60;49.40;;;;;;1592831;73;732;-70
2024/04/02 06:07:22;;;;;;;;;;;20.50;49.40;;;;;;1593856;73;1106;-67
2024/04/02 06:09:23;;;;;;;;;;;20.60;49.40;;;;;;1584648;73;1512;-70
2024/04/02 06:11:25;;;;;;;;;;;20.50;49.40;;;;;;1586809;73;1564;-70
2024/04/02 06:13:27;;;;;;;;;;;20.50;49.30;;;;;;1589696;73;734;-70
2024/04/02 06:15:29;;;;;;;;;;;20.60;49.40;;;;;;1589323;73;717;-70
2024/04/02 06:17:31;;;;;;;;;;;20.90;49.60;;;;;;1593068;73;1162;-70
2024/04/02 06:19:33;;;;;;;;;;;20.50;49.30;;;;;;1593862;73;1947;-70
2024/04/02 06:21:35;;;;;;;;;;;20.60;49.30;;;;;;1591345;73;752;-70
2024/04/02 06:23:37;;;;;;;;;;;20.50;49.20;;;;;;1582553;73;715;-68
2024/04/02 06:25:38;;;;;;;;;;;20.50;49.20;;;;;;1596784;73;1306;-69
2024/04/02 06:27:42;;;;;;;;;;;20.60;49.20;;;;;;1588726;73;1115;-67
2024/04/02 06:29:44;;;;;;;;;;;20.50;49.20;;;;;;1584763;73;697;-72
2024/04/02 06:31:46;;;;;;;;;;;20.50;49.20;;;;;;1586362;73;744;-69
2024/04/02 06:33:48;;;;;;;;;;;20.60;49.20;;;;;;1594928;73;756;-70
2024/04/02 06:35:49;;;;;;;;;;;20.50;49.20;;;;;;1579935;73;710;-70
2024/04/02 06:37:51;;;;;;;;;;;20.60;49.20;;;;;;1592339;73;1117;-67
2024/04/02 06:39:53;;;;;;;;;;;20.60;49.20;;;;;;1595292;73;1918;-70
2024/04/02 06:41:55;;;;;;;;;;;20.50;49.20;;;;;;1593079;73;744;-69
2024/04/02 06:43:57;;;;;;;;;;;20.70;49.30;;;;;;1588924;73;724;-69
2024/04/02 06:46:00;;;;;;;;;;;20.50;49.10;;;;;;1599732;73;646;-71
2024/04/02 06:48:02;;;;;;;;;;;20.50;49.10;;;;;;1590738;73;788;-71
2024/04/02 06:50:05;;;;;;;;;;;20.50;49.10;;;;;;1592378;73;741;-69
2024/04/02 06:52:07;;;;;;;;;;;20.50;49.10;;;;;;1593192;73;728;-67
2024/04/02 06:54:09;;;;;;;;;;;20.50;49.00;;;;;;1591209;73;1619;-70
2024/04/02 06:56:11;;;;;;;;;;;20.50;49.00;;;;;;1591129;73;1178;-68
2024/04/02 06:58:13;;;;;;;;;;;20.50;49.00;;;;;;1593855;73;712;-70
2024/04/02 07:00:16;;;;;;;;;;;20.50;49.00;;;;;;1590587;73;1938;-69
2024/04/02 07:02:18;;;;;;;;;;;20.60;48.90;;;;;;1581560;73;731;-70
2024/04/02 07:04:20;;;;;;;;;;;20.50;48.90;;;;;;1593583;73;784;-69
2024/04/02 07:06:21;;;;;;;;;;;20.50;48.90;;;;;;1594366;73;1157;-69
2024/04/02 07:08:25;;;;;;;;;;;20.50;48.90;;;;;;1600543;73;1498;-69
2024/04/02 07:10:27;;;;;;;;;;;20.50;48.90;;;;;;1593262;73;759;-69
2024/04/02 07:12:28;;;;;;;;;;;20.50;48.90;;;;;;1600973;73;726;-72
2024/04/02 07:14:30;;;;;;;;;;;20.50;48.90;;;;;;1592355;73;1129;-70
2024/04/02 07:16:34;;;;;;;;;;;20.50;48.90;;;;;;1587524;73;1175;-69
2024/04/02 07:18:36;;;;;;;;;;;20.50;48.90;;;;;;1593831;73;1949;-69
2024/04/02 07:20:38;;;;;;;;;;;20.50;48.90;;;;;;1594440;73;1115;-71
2024/04/02 07:22:40;;;;;;;;;;;20.50;48.90;;;;;;1595626;73;1619;-68
2024/04/02 07:24:41;;;;;;;;;;;20.50;49.00;;;;;;1585778;73;1094;-70
2024/04/02 07:26:43;;;;;;;;;;;20.50;48.90;;;;;;1590318;73;1148;-69
2024/04/02 07:28:45;;;;;;;;;;;20.50;49.00;;;;;;1598893;73;1170;-70
2024/04/02 07:30:47;;;;;;;;;;;20.60;49.10;;;;;;1587983;73;688;-70
2024/04/02 07:32:51;;;;;;;;;;;20.60;49.20;;;;;;1593476;73;733;-71
2024/04/02 07:34:53;;;;;;;;;;;20.60;49.00;;;;;;1581930;73;1667;-69
2024/04/02 07:36:59;;;;;;;;;;;20.60;49.20;;;;;;1581861;73;1145;-70
2024/04/02 07:38:58;;;;;;;;;;;20.60;49.20;;;;;;1591016;73;1909;-70
2024/04/02 07:41:03;;;;;;;;;;;20.60;49.30;;;;;;1588270;73;806;-70
2024/04/02 07:43:06;;;;;;;;;;;20.60;49.40;;;;;;1586519;73;1091;-70
2024/04/02 07:45:08;;;;;;;;;;;20.70;49.50;;;;;;1599273;73;613;-71
2024/04/02 07:47:09;;;;;;;;;;;20.60;49.40;;;;;;1600007;73;1142;-69
2024/04/02 07:49:11;;;;;;;;;;;20.60;49.30;;;;;;1581213;73;1566;-70
2024/04/02 07:51:13;;;;;;;;;;;20.60;49.30;;;;;;1590388;73;757;-69
2024/04/02 07:53:15;;;;;;;;;;;20.60;49.20;;;;;;1587078;73;707;-70
2024/04/02 07:55:17;;;;;;;;;;;20.60;49.30;;;;;;1592699;73;722;-70
2024/04/02 07:57:19;;;;;;;;;;;20.70;49.50;;;;;;1593510;74;1186;-70
2024/04/02 07:59:21;;;;;;;;;;;20.70;49.70;;;;;;1586732;73;1917;-69
2024/04/02 08:01:23;;;;;;;;;;;20.60;49.30;;;;;;1586446;73;760;-68
2024/04/02 08:03:25;;;;;;;;;;;20.60;49.40;;;;;;1585551;73;1583;-67
2024/04/02 08:05:27;;;;;;;;;;;20.70;49.60;;;;;;1597054;73;770;-68
2024/04/02 08:07:29;;;;;;;;;;;20.70;49.60;;;;;;1593917;73;1141;-67
2024/04/02 08:09:31;;;;;;;;;;;20.70;49.60;;;;;;1590031;74;791;-68
2024/04/02 08:11:33;;;;;;;;;;;20.70;49.60;;;;;;1588262;73;689;-67
2024/04/02 08:13:35;;;;;;;;;;;20.70;49.70;;;;;;1599429;73;731;-68
2024/04/02 08:15:38;;;;;;;;;;;20.60;49.50;;;;;;1595424;73;732;-68
2024/04/02 08:17:40;;;;;;;;;;;20.60;49.50;;;;;;1588001;73;1489;-68
2024/04/02 08:19:45;;;;;;;;;;;20.70;49.60;;;;;;1589001;73;1934;-68
2024/04/02 08:21:47;;;;;;;;;;;20.70;49.60;;;;;;1590335;73;792;-68
2024/04/02 08:23:49;;;;;;;;;;;20.70;49.60;;;;;;1599099;73;766;-68
2024/04/02 08:25:51;;;;;;;;;;;20.70;49.60;;;;;;1585971;73;786;-68
2024/04/02 08:27:53;;;;;;;;;;;20.60;49.40;;;;;;1590163;73;1242;-67
2024/04/02 08:29:55;;;;;;;;;;;20.70;49.50;;;;;;1590457;73;1384;-69
2024/04/02 08:31:56;;;;;;;;;;;20.70;49.50;;;;;;1589524;73;1584;-67
2024/04/02 08:33:58;;;;;;;;;;;20.60;49.40;;;;;;1597666;73;810;-69
2024/04/02 08:36:00;;;;;;;;;;;20.70;49.40;;;;;;1593179;73;804;-70
2024/04/02 08:38:02;;;;;;;;;;;20.60;49.30;;;;;;1594767;73;745;-69
2024/04/02 08:40:07;;;;;;;;;;;20.60;49.30;;;;;;1593609;73;1937;-67
2024/04/02 08:42:08;;;;;;;;;;;20.60;49.30;;;;;;1580997;73;1594;-68
2024/04/02 08:44:10;;;;;;;;;;;20.70;49.40;;;;;;1589160;73;759;-68
2024/04/02 08:46:12;;;;;;;;;;;20.60;49.20;;;;;;1597072;73;1369;-68
2024/04/02 08:48:14;;;;;;;;;;;20.70;49.40;;;;;;1590484;73;688;-67
2024/04/02 08:50:16;;;;;;;;;;;20.60;49.20;;;;;;1591137;73;856;-66
2024/04/02 08:52:18;;;;;;;;;;;20.60;49.20;;;;;;1585863;73;734;-68
2024/04/02 08:54:21;;;;;;;;;;;20.60;49.20;;;;;;1590114;73;705;-68
2024/04/02 08:56:23;;;;;;;;;;;20.60;49.20;;;;;;1595247;73;1163;-67
2024/04/02 08:58:24;;;;;;;;;;;20.60;49.20;;;;;;1589033;73;1313;-70
2024/04/02 09:00:26;;;;;;;;;;;20.70;49.30;;;;;;1590316;73;1911;-67
2024/04/02 09:02:29;;;;;;;;;;;20.60;49.20;;;;;;1599815;73;768;-69
2024/04/02 09:04:32;;;;;;;;;;;20.60;49.10;;;;;;1595786;73;809;-69
2024/04/02 09:06:34;;;;;;;;;;;20.60;49.10;;;;;;1590012;73;1159;-66
2024/04/02 09:08:45;;;;;;;;;;;20.60;49.10;;;;;;1589260;73;609;-68
2024/04/02 09:10:47;;;;;;;;;;;20.60;49.10;;;;;;1588414;73;728;-66
2024/04/02 09:12:49;;;;;;;;;;;20.70;49.20;;;;;;1594431;73;776;-68
2024/04/02 09:14:51;;;;;;;;;;;20.60;49.00;;;;;;1587888;73;1575;-69
2024/04/02 09:16:53;;;;;;;;;;;20.60;49.00;;;;;;1591537;73;1150;-68
2024/04/02 09:18:55;;;;;;;;;;;20.60;49.00;;;;;;1594394;73;810;-67
2024/04/02 09:20:57;;;;;;;;;;;20.60;49.00;;;;;;1592761;73;1938;-68
2024/04/02 09:22:59;;;;;;;;;;;20.60;49.00;;;;;;1591374;73;801;-68
2024/04/02 09:25:01;;;;;;;;;;;20.60;49.00;;;;;;1587744;73;722;-68
2024/04/02 09:27:02;;;;;;;;;;;20.60;49.00;;;;;;1589264;73;1168;-69
2024/04/02 09:29:04;;;;;;;;;;;20.60;49.00;;;;;;1593345;73;1364;-68
2024/04/02 09:31:06;;;;;;;;;;;20.60;48.90;;;;;;1585886;73;776;-69
2024/04/02 09:33:08;;;;;;;;;;;20.60;48.90;;;;;;1591184;73;740;-70
2024/04/02 09:35:13;;;;;;;;;;;20.60;48.90;;;;;;1596887;73;733;-71
2024/04/02 09:37:26;;;;;;;;;;;20.60;48.90;;;;;;1591336;73;1131;-68
2024/04/02 09:39:28;;;;;;;;;;;20.70;49.10;;;;;;1586708;73;2135;-69
2024/04/02 09:41:30;;;;;;;;;;;20.60;48.90;;;;;;1592167;73;1572;-67
2024/04/02 09:43:32;;;;;;;;;;;20.70;49.10;;;;;;1593309;73;712;-68
2024/04/02 09:45:34;;;;;;;;;;;20.60;48.90;;;;;;1594751;73;683;-66
2024/04/02 09:47:36;;;;;;;;;;;20.70;49.10;;;;;;1582038;73;1128;-67
2024/04/02 09:49:38;;;;;;;;;;;20.70;49.10;;;;;;1595427;73;697;-69
2024/04/02 09:51:40;;;;;;;;;;;20.60;48.90;;;;;;1588212;73;754;-66
2024/04/02 09:53:42;;;;;;;;;;;20.70;49.00;;;;;;1585771;73;777;-65
2024/04/02 09:55:44;;;;;;;;;;;20.60;48.90;;;;;;1588194;73;1384;-67
2024/04/02 09:57:45;;;;;;;;;;;20.60;48.90;;;;;;1592172;73;1138;-64
2024/04/02 09:59:47;;;;;;;;;;;20.60;48.90;;;;;;1598379;73;1925;-66
2024/04/02 10:01:52;;;;;;;;;;;20.60;48.80;;;;;;1590763;73;752;-66
2024/04/02 10:03:57;;;;;;;;;;;20.70;48.90;;;;;;1591829;73;708;-66
2024/04/02 10:06:02;;;;;;;;;;;20.60;48.80;;;;;;1592652;73;1837;-67
2024/04/02 10:08:06;;;;;;;;;;;20.70;48.90;;;;;;1584847;73;742;-66
2024/04/02 10:10:08;;;;;;;;;;;20.70;48.90;;;;;;1582943;73;1543;-66
2024/04/02 10:12:10;;;;;;;;;;;20.70;48.90;;;;;;1599144;73;719;-66
2024/04/02 10:14:13;;;;;;;;;;;20.70;48.90;;;;;;1597916;73;661;-66
2024/04/02 10:16:15;;;;;;;;;;;20.60;48.70;;;;;;1589499;73;1162;-66
2024/04/02 10:18:17;;;;;;;;;;;20.60;48.70;;;;;;1588027;73;1003;-65
2024/04/02 10:20:20;;;;;;;;;;;20.70;48.90;;;;;;1571587;74;1937;-68
2024/04/02 10:22:34;;;;;;;;;;;20.90;48.90;;;;;;1595230;73;1730;-67
2024/04/02 10:24:35;;;;;;;;;;;20.60;48.60;;;;;;1584548;73;1485;-69
2024/04/02 10:26:37;;;;;;;;;;;20.70;48.80;;;;;;1589829;73;1177;-67
2024/04/02 10:28:39;;;;;;;;;;;20.60;48.70;;;;;;1591689;73;1379;-71
2024/04/02 10:30:46;;;;;;;;;;;20.60;48.70;;;;;;1574919;74;1012;-69
2024/04/02 10:32:48;;;;;;;;;;;20.60;48.60;;;;;;1584435;73;699;-69
2024/04/02 10:34:50;;;;;;;;;;;20.70;48.80;;;;;;1590491;73;735;-70
2024/04/02 10:36:52;;;;;;;;;;;20.70;48.80;;;;;;1595667;73;1135;-70
2024/04/02 10:38:53;;;;;;;;;;;20.60;48.60;;;;;;1594594;73;1325;-69
2024/04/02 10:40:56;;;;;;;;;;;20.60;48.60;;;;;;1588952;73;1932;-69
2024/04/02 10:42:58;;;;;;;;;;;20.70;48.70;;;;;;1598574;73;724;-67
2024/04/02 10:45:00;;;;;;;;;;;20.70;48.80;;;;;;1593919;73;582;-68
2024/04/02 10:47:01;;;;;;;;;;;20.70;48.70;;;;;;1598026;73;1151;-70
2024/04/02 10:49:03;;;;;;;;;;;20.70;48.80;;;;;;1593001;73;842;-68
2024/04/02 10:51:05;;;;;;;;;;;20.70;48.70;;;;;;1587991;73;755;-72
2024/04/02 10:53:07;;;;;;;;;;;20.70;48.80;;;;;;1588861;73;1529;-68
2024/04/02 10:55:09;;;;;;;;;;;20.70;48.70;;;;;;1597222;73;798;-68
2024/04/02 10:57:11;;;;;;;;;;;20.70;48.80;;;;;;1594869;73;1100;-69
2024/04/02 10:59:13;;;;;;;;;;;20.70;48.80;;;;;;1593875;73;1345;-68
2024/04/02 11:01:15;;;;;;;;;;;20.70;48.80;;;;;;1593385;73;1919;-69
2024/04/02 11:03:17;;;;;;;;;;;20.70;48.80;;;;;;1596885;73;720;-69
2024/04/02 11:05:18;;;;;;;;;;;20.70;48.80;;;;;;1596441;73;754;-67
2024/04/02 11:07:22;;;;;;;;;;;20.70;48.70;;;;;;1592156;73;1552;-67
2024/04/02 11:09:24;;;;;;;;;;;20.70;48.80;;;;;;1588346;73;602;-68
2024/04/02 11:11:26;;;;;;;;;;;20.70;48.70;;;;;;1588500;73;598;-67
2024/04/02 11:13:28;;;;;;;;;;;20.70;48.70;;;;;;1591177;73;948;-66
2024/04/02 11:15:30;;;;;;;;;;;20.80;48.70;;;;;;1596160;73;785;-70
2024/04/02 11:17:32;;;;;;;;;;;20.70;48.70;;;;;;1589338;73;1137;-71
2024/04/02 11:19:33;;;;;;;;;;;20.70;48.80;;;;;;1594445;73;816;-68
2024/04/02 11:21:37;;;;;;;;;;;20.70;48.40;;;;;;1597052;73;1921;-69
2024/04/02 11:26:06;;;;;;;;;;;20.70;48.50;;;;;;1588951;73;1604;-70
2024/04/02 11:28:09;;;;;;;;;;;20.70;48.60;;;;;;1589946;73;660;-70
2024/04/02 11:30:12;;;;;;;;;;;20.80;48.60;;;;;;1592588;73;1352;-70
2024/04/02 11:32:14;;;;;;;;;;;20.70;48.70;;;;;;1583419;73;711;-65
2024/04/02 11:34:16;;;;;;;;;;;20.70;48.70;;;;;;1593288;73;1554;-69
2024/04/02 11:36:17;;;;;;;;;;;20.80;48.80;;;;;;1601244;73;1155;-69
2024/04/02 11:38:19;;;;;;;;;;;20.70;48.80;;;;;;1592562;73;725;-70
2024/04/02 11:40:21;;;;;;;;;;;20.70;48.80;;;;;;1581707;73;1924;-69
2024/04/02 11:42:23;;;;;;;;;;;20.70;48.80;;;;;;1589214;73;763;-70
2024/04/02 11:44:25;;;;;;;;;;;20.80;48.90;;;;;;1586492;73;771;-68
2024/04/02 11:46:27;;;;;;;;;;;20.70;48.80;;;;;;1591010;73;1140;-67
2024/04/02 11:48:32;;;;;;;;;;;20.70;48.80;;;;;;1588618;73;1536;-68
2024/04/02 11:50:34;;;;;;;;;;;20.70;48.90;;;;;;1585080;73;690;-69
2024/04/02 11:52:36;;;;;;;;;;;20.80;48.90;;;;;;1592503;73;710;-68
2024/04/02 11:54:38;;;;;;;;;;;20.80;48.90;;;;;;1592226;73;664;-69
2024/04/02 12:01:20;;;;;;;;;;;20.70;48.80;;;;;;1596372;73;1900;-70
2024/04/02 12:03:23;;;;;;;;;;;20.70;48.90;;;;;;1589130;73;1592;-70
2024/04/02 12:05:25;;;;;;;;;;;20.70;48.90;;;;;;1589802;73;749;-71
2024/04/02 12:07:28;;;;;;;;;;;20.70;48.90;;;;;;1589246;73;1186;-70
2024/04/02 12:09:30;;;;;;;;;;;20.70;48.90;;;;;;1588630;73;1808;-68
2024/04/02 12:11:32;;;;;;;;;;;20.80;49.00;;;;;;1589166;74;684;-68
2024/04/02 12:13:34;;;;;;;;;;;20.70;48.90;;;;;;1593150;73;690;-70
2024/04/02 12:15:35;;;;;;;;;;;20.70;49.00;;;;;;1594399;73;595;-69